Terminal Aerodrome Forecast
Issued by NWS Blacksburg, VA

Current Version | Previous Version | Graphics & Text | Print | Product List | Glossary On
Versions: 1 2 3 4 5 6 7 8 9 10 11 12 13 14 15 16 17 18 19 20 21 22 23 24 25 26 27 28 29 30 31 32 33 34 35
000
FTUS41 KRNK 012341
TAFBLF
TAF
KBLF 012341Z 0200/0224 20009G17KT P6SM -RA OVC025
     FM020200 19012G22KT 3SM RA BR OVC005
      TEMPO 0205/0209 3/4SM RA BR OVC003
     FM020900 24015G25KT 4SM -RASN BR OVC008
     FM021400 28018G28KT 3SM -SN OVC003
     FM021800 28020G30KT 5SM -SHSN OVC012=

USA.gov is the U.S. government's official web portal to all federal, state and local government web resources and services.